Terminal Aerodrome Forecast
Issued by NWS

Home | Current Version | Previous Version | Text Only | Print | Product List | Glossary On
Versions: 1 2 3 4 5 6 7 8 9 10 11 12 13 14 15 16 17 18 19 20
000
FTUS44 KSJT 221857 AAB
TAFJCT
TAF AMD
KJCT 221857Z 2219/2318 11007KT P6SM OVC009
     FM222100 VRB04KT P6SM OVC015
     FM222300 VRB04KT P6SM BKN025
     FM230330 VRB04KT P6SM VCTS OVC025CB
     FM230700 VRB04KT P6SM OVC012
     FM231700 01006KT P6SM VCTS BKN025CB=

USA.gov is the U.S. government's official web portal to all federal, state and local government web resources and services.